Terminal Aerodrome Forecast
Issued by NWS

Home | Current Version | Previous Version | Text Only | Print | Product List | Glossary On
Versions: 1 2 3 4 5 6 7 8 9 10 11 12 13 14 15 16 17 18 19 20 21 22 23 24 25 26 27 28 29 30 31 32 33
000
FTUS46 KEKA 051349 CCB
TAFCEC
TAF COR
KCEC 051349Z 0512/0612 VRB05KT 1SM BR OVC003
     FM051400 34004KT 3SM BR OVC004
     FM051800 33010KT P6SM OVC020
     FM052100 32015G20KT P6SM OVC030
     FM060300 33012G18KT 6SM BR OVC010
     FM061000 35012G18KT 4SM BR OVC007=

USA.gov is the U.S. government's official web portal to all federal, state and local government web resources and services.